Time;durP1;ratioP1;P1;durP2;ratioP2;P2;SDS_P1;SDS_P2;PMS_P1;PMS_P2;Temp;Humidity;BMP_temperature;BMP_pressure;BME280_temperature;BME280_humidity;BME280_pressure;Samples;Min_cycle;Max_cycle;Signal;HPM_P1;HPM_P2
2024/03/27 00:01:11;;;;;;;6.83;5.03;;;;;;;;;;5116398;28;20426;-74
2024/03/27 00:03:40;;;;;;;8.60;5.00;;;;;;;;;;5115634;28;20412;-74
2024/03/27 00:06:06;;;;;;;6.70;5.73;;;;;;;;;;5117508;28;20412;-74
2024/03/27 00:08:32;;;;;;;6.83;5.53;;;;;;;;;;5116942;28;20481;-73
2024/03/27 00:10:58;;;;;;;5.33;4.83;;;;;;;;;;5115877;28;20465;-74
2024/03/27 00:13:25;;;;;;;5.80;4.80;;;;;;;;;;5115158;28;20414;-74
2024/03/27 00:15:52;;;;;;;6.60;5.80;;;;;;;;;;5115617;28;20406;-74
2024/03/27 00:18:18;;;;;;;5.23;4.63;;;;;;;;;;5115176;28;20424;-74
2024/03/27 00:20:44;;;;;;;6.53;5.60;;;;;;;;;;5114964;28;20771;-74
2024/03/27 00:23:10;;;;;;;4.93;4.47;;;;;;;;;;5114892;28;20873;-74
2024/03/27 00:25:37;;;;;;;5.00;4.20;;;;;;;;;;5115305;28;20735;-75
2024/03/27 00:28:03;;;;;;;6.83;4.73;;;;;;;;;;5114912;28;20399;-74
2024/03/27 00:30:29;;;;;;;7.93;4.53;;;;;;;;;;5114823;28;20888;-74
2024/03/27 00:32:58;;;;;;;5.73;4.07;;;;;;;;;;5114881;28;20497;-74
2024/03/27 00:35:24;;;;;;;5.53;5.00;;;;;;;;;;5115330;28;20882;-74
2024/03/27 00:37:50;;;;;;;5.33;4.80;;;;;;;;;;5114736;28;20407;-74
2024/03/27 00:40:16;;;;;;;6.47;4.80;;;;;;;;;;5114799;28;20410;-73
2024/03/27 00:42:42;;;;;;;5.67;4.47;;;;;;;;;;5114916;28;20436;-74
2024/03/27 00:45:08;;;;;;;5.93;4.43;;;;;;;;;;5114794;28;20402;-74
2024/03/27 00:47:34;;;;;;;7.70;4.73;;;;;;;;;;5114678;28;20420;-74
2024/03/27 00:50:00;;;;;;;4.73;4.30;;;;;;;;;;5114651;28;20429;-74
2024/03/27 00:52:26;;;;;;;5.17;4.60;;;;;;;;;;5114572;28;20449;-74
2024/03/27 00:54:52;;;;;;;4.80;3.93;;;;;;;;;;5113237;28;20899;-74
2024/03/27 00:57:19;;;;;;;4.90;3.80;;;;;;;;;;5113339;28;20802;-74
2024/03/27 00:59:46;;;;;;;3.70;3.40;;;;;;;;;;5114503;28;20425;-73
2024/03/27 01:02:12;;;;;;;4.00;3.60;;;;;;;;;;5114384;28;20454;-73
2024/03/27 01:04:38;;;;;;;4.67;4.10;;;;;;;;;;5114318;28;20405;-74
2024/03/27 01:07:04;;;;;;;5.90;4.20;;;;;;;;;;5114319;28;20751;-74
2024/03/27 01:09:30;;;;;;;5.67;3.90;;;;;;;;;;5114040;28;20465;-74
2024/03/27 01:11:56;;;;;;;4.37;3.80;;;;;;;;;;5114175;28;20450;-73
2024/03/27 01:14:22;;;;;;;4.87;4.37;;;;;;;;;;5114162;28;20949;-72
2024/03/27 01:16:48;;;;;;;4.00;3.60;;;;;;;;;;5114077;28;20385;-74
2024/03/27 01:19:14;;;;;;;4.20;3.63;;;;;;;;;;5114013;28;20792;-74
2024/03/27 01:21:40;;;;;;;6.97;5.20;;;;;;;;;;5113886;28;20435;-74
2024/03/27 01:24:06;;;;;;;5.77;4.73;;;;;;;;;;5113912;28;20434;-72
2024/03/27 01:26:32;;;;;;;4.77;4.27;;;;;;;;;;5113850;28;20426;-73
2024/03/27 01:28:58;;;;;;;5.17;4.50;;;;;;;;;;5113755;28;20564;-73
2024/03/27 01:31:24;;;;;;;7.03;4.97;;;;;;;;;;5113585;28;20497;-74
2024/03/27 01:33:50;;;;;;;4.60;3.83;;;;;;;;;;5113724;28;20950;-73
2024/03/27 01:36:16;;;;;;;5.47;4.40;;;;;;;;;;5113616;28;20397;-74
2024/03/27 01:38:42;;;;;;;4.63;3.80;;;;;;;;;;5113898;28;20930;-74
2024/03/27 01:41:08;;;;;;;4.73;4.27;;;;;;;;;;5113537;28;20410;-72
2024/03/27 01:43:34;;;;;;;4.30;3.50;;;;;;;;;;5112247;28;20410;-73
2024/03/27 01:46:00;;;;;;;4.23;3.77;;;;;;;;;;5112241;28;20845;-73
2024/03/27 01:48:26;;;;;;;4.73;4.00;;;;;;;;;;5113368;28;20461;-73
2024/03/27 01:50:53;;;;;;;5.30;4.63;;;;;;;;;;5113273;28;20832;-74
2024/03/27 01:53:20;;;;;;;7.43;4.40;;;;;;;;;;5113418;28;20399;-73
2024/03/27 01:55:47;;;;;;;4.23;3.37;;;;;;;;;;5113352;28;20736;-74
2024/03/27 01:58:13;;;;;;;8.73;6.20;;;;;;;;;;5113302;28;20426;-74
2024/03/27 02:00:39;;;;;;;3.63;3.20;;;;;;;;;;5112059;28;20409;-74
2024/03/27 02:03:06;;;;;;;4.70;4.20;;;;;;;;;;5113283;28;20391;-74
2024/03/27 02:05:32;;;;;;;5.43;3.60;;;;;;;;;;5113297;28;20440;-74
2024/03/27 02:07:58;;;;;;;4.73;4.17;;;;;;;;;;5112974;28;20768;-74
2024/03/27 02:10:24;;;;;;;4.17;3.77;;;;;;;;;;5113224;28;20384;-73
2024/03/27 02:12:50;;;;;;;4.33;3.70;;;;;;;;;;5113119;28;20391;-73
2024/03/27 02:15:18;;;;;;;9.20;3.63;;;;;;;;;;5113190;28;20404;-73
2024/03/27 02:17:44;;;;;;;5.17;4.00;;;;;;;;;;5113335;28;20401;-73
2024/03/27 02:20:10;;;;;;;4.67;3.77;;;;;;;;;;5113188;28;20435;-73
2024/03/27 02:22:37;;;;;;;7.40;3.30;;;;;;;;;;5113183;28;20492;-73
2024/03/27 02:25:23;;;;;;;5.53;4.07;;;;;;;;;;5113030;28;20398;-74
2024/03/27 02:27:49;;;;;;;5.20;3.30;;;;;;;;;;5112857;28;20403;-73
2024/03/27 02:30:15;;;;;;;4.70;3.47;;;;;;;;;;5111735;28;20938;-73
2024/03/27 02:32:41;;;;;;;4.13;3.33;;;;;;;;;;5112809;28;20528;-74
2024/03/27 02:35:14;;;;;;;9.33;3.33;;;;;;;;;;5112399;28;20926;-71
2024/03/27 02:37:40;;;;;;;5.13;3.07;;;;;;;;;;5113053;28;20404;-73
2024/03/27 02:40:06;;;;;;;4.70;3.50;;;;;;;;;;5112734;28;20431;-74
2024/03/27 02:42:32;;;;;;;4.00;3.30;;;;;;;;;;5112855;28;20437;-73
2024/03/27 02:44:58;;;;;;;3.80;2.67;;;;;;;;;;5113129;28;20454;-74
2024/03/27 02:47:24;;;;;;;6.17;3.73;;;;;;;;;;5111441;28;20501;-73
2024/03/27 02:49:50;;;;;;;5.53;3.80;;;;;;;;;;5112582;28;20507;-73
2024/03/27 02:52:16;;;;;;;4.97;3.67;;;;;;;;;;5112633;28;20773;-73
2024/03/27 02:54:42;;;;;;;7.43;4.03;;;;;;;;;;5112741;28;20401;-74
2024/03/27 02:57:08;;;;;;;7.73;4.23;;;;;;;;;;5111302;28;20422;-73
2024/03/27 02:59:34;;;;;;;4.90;3.93;;;;;;;;;;5112572;28;20426;-74
2024/03/27 03:02:00;;;;;;;4.83;4.00;;;;;;;;;;5111226;28;20403;-71
2024/03/27 03:04:26;;;;;;;4.93;4.20;;;;;;;;;;5112483;28;20459;-73
2024/03/27 03:06:52;;;;;;;5.63;3.60;;;;;;;;;;5111263;28;20901;-73
2024/03/27 03:09:18;;;;;;;4.80;4.00;;;;;;;;;;5112224;28;20503;-73
2024/03/27 03:11:44;;;;;;;5.00;4.40;;;;;;;;;;5111116;28;20972;-73
2024/03/27 03:14:10;;;;;;;9.03;4.70;;;;;;;;;;5112452;28;20400;-72
2024/03/27 03:16:36;;;;;;;6.80;4.20;;;;;;;;;;5112844;28;20399;-73
2024/03/27 03:19:02;;;;;;;4.93;4.47;;;;;;;;;;5111086;28;20427;-74
2024/03/27 03:21:28;;;;;;;4.67;4.27;;;;;;;;;;5112549;28;20399;-74
2024/03/27 03:23:54;;;;;;;5.13;4.73;;;;;;;;;;5112706;28;20401;-73
2024/03/27 03:26:20;;;;;;;6.60;4.90;;;;;;;;;;5112836;28;20802;-74
2024/03/27 03:28:46;;;;;;;5.17;4.47;;;;;;;;;;5112594;28;20429;-73
2024/03/27 03:31:17;;;;;;;4.63;4.13;;;;;;;;;;5112871;28;20472;-73
2024/03/27 03:33:43;;;;;;;4.50;3.47;;;;;;;;;;5113241;28;20387;-73
2024/03/27 03:36:09;;;;;;;5.13;4.63;;;;;;;;;;5113502;28;20469;-73
2024/03/27 03:38:35;;;;;;;4.23;3.63;;;;;;;;;;5112348;28;20513;-73
2024/03/27 03:41:02;;;;;;;4.83;3.60;;;;;;;;;;5114596;28;20462;-75
2024/03/27 03:43:28;;;;;;;4.90;3.67;;;;;;;;;;5115955;28;20409;-74
2024/03/27 03:45:54;;;;;;;4.30;3.90;;;;;;;;;;5117359;28;20901;-74
2024/03/27 03:48:23;;;;;;;4.73;3.33;;;;;;;;;;5118693;28;20423;-74
2024/03/27 03:50:49;;;;;;;5.90;4.10;;;;;;;;;;5116723;28;20494;-74
2024/03/27 03:53:15;;;;;;;5.70;3.97;;;;;;;;;;5116621;28;20404;-74
2024/03/27 03:55:42;;;;;;;4.90;4.40;;;;;;;;;;5116250;28;20392;-72
2024/03/27 03:58:07;;;;;;;5.50;3.77;;;;;;;;;;5115617;28;20515;-74
2024/03/27 04:00:34;;;;;;;7.73;4.63;;;;;;;;;;5115475;28;20442;-74
2024/03/27 04:03:00;;;;;;;6.37;4.57;;;;;;;;;;5115466;28;20415;-75
2024/03/27 04:05:26;;;;;;;5.77;4.47;;;;;;;;;;5115313;28;20894;-75
2024/03/27 04:07:52;;;;;;;5.60;4.93;;;;;;;;;;5114935;28;20403;-74
2024/03/27 04:10:18;;;;;;;7.53;5.60;;;;;;;;;;5115361;28;20392;-74
2024/03/27 04:12:44;;;;;;;6.00;4.93;;;;;;;;;;5115124;28;20457;-75
2024/03/27 04:15:10;;;;;;;5.13;4.50;;;;;;;;;;5115174;28;20410;-74
2024/03/27 04:17:36;;;;;;;5.40;4.90;;;;;;;;;;5115068;28;20399;-75
2024/03/27 04:20:10;;;;;;;8.43;5.90;;;;;;;;;;5114929;28;20427;-75
2024/03/27 04:22:36;;;;;;;9.07;5.93;;;;;;;;;;5113764;28;20473;-75
2024/03/27 04:25:03;;;;;;;5.67;5.07;;;;;;;;;;5114930;28;20475;-74
2024/03/27 04:27:29;;;;;;;6.17;5.57;;;;;;;;;;5114857;28;20541;-74
2024/03/27 04:29:56;;;;;;;5.57;4.50;;;;;;;;;;5114822;28;20430;-74
2024/03/27 04:32:22;;;;;;;6.93;5.80;;;;;;;;;;5114772;28;20452;-74
2024/03/27 04:34:48;;;;;;;7.93;5.50;;;;;;;;;;5114942;28;20532;-73
2024/03/27 04:37:14;;;;;;;7.93;6.83;;;;;;;;;;5114894;28;20440;-74
2024/03/27 04:39:40;;;;;;;5.47;4.93;;;;;;;;;;5114969;28;20859;-74
2024/03/27 04:42:10;;;;;;;6.17;5.03;;;;;;;;;;5114780;28;20868;-75
2024/03/27 04:44:36;;;;;;;7.50;6.00;;;;;;;;;;5114667;28;20449;-73
2024/03/27 04:47:03;;;;;;;8.10;5.33;;;;;;;;;;5114550;28;20660;-73
2024/03/27 04:49:29;;;;;;;6.40;5.67;;;;;;;;;;5114627;28;20505;-73
2024/03/27 04:51:55;;;;;;;8.17;6.27;;;;;;;;;;5113147;28;20460;-74
2024/03/27 04:54:22;;;;;;;6.87;6.17;;;;;;;;;;5114572;28;20395;-73
2024/03/27 04:56:48;;;;;;;6.30;5.70;;;;;;;;;;5113971;28;20402;-73
2024/03/27 04:59:14;;;;;;;7.73;5.67;;;;;;;;;;5114629;28;20411;-74
2024/03/27 05:01:40;;;;;;;10.83;6.37;;;;;;;;;;5114753;28;20818;-74
2024/03/27 05:04:06;;;;;;;7.97;7.17;;;;;;;;;;5114498;28;20406;-73
2024/03/27 05:06:38;;;;;;;8.30;7.40;;;;;;;;;;5114725;28;20481;-74
2024/03/27 05:09:09;;;;;;;10.93;6.80;;;;;;;;;;5114415;28;20473;-74
2024/03/27 05:11:35;;;;;;;6.60;5.93;;;;;;;;;;5114172;28;20814;-73
2024/03/27 05:14:01;;;;;;;7.10;6.40;;;;;;;;;;5114535;28;20403;-72
2024/03/27 05:16:27;;;;;;;8.20;6.97;;;;;;;;;;5114003;28;20404;-73
2024/03/27 05:18:53;;;;;;;8.27;6.80;;;;;;;;;;5114101;28;20424;-74
2024/03/27 05:21:19;;;;;;;7.90;6.93;;;;;;;;;;5114233;28;20403;-73
2024/03/27 05:23:46;;;;;;;8.03;7.20;;;;;;;;;;5114312;28;20747;-72
2024/03/27 05:26:12;;;;;;;7.90;7.10;;;;;;;;;;5113833;28;20426;-73
2024/03/27 05:28:38;;;;;;;7.83;6.77;;;;;;;;;;5113767;28;20417;-74
2024/03/27 05:31:05;;;;;;;9.70;6.80;;;;;;;;;;5113623;28;20823;-72
2024/03/27 05:33:30;;;;;;;8.33;7.17;;;;;;;;;;5113865;28;20392;-74
2024/03/27 05:35:56;;;;;;;7.50;6.10;;;;;;;;;;5113535;28;20407;-74
2024/03/27 05:38:22;;;;;;;8.80;7.53;;;;;;;;;;5113534;28;20411;-73
2024/03/27 05:40:48;;;;;;;10.43;6.63;;;;;;;;;;5113647;28;20418;-74
2024/03/27 05:43:14;;;;;;;10.97;6.70;;;;;;;;;;5113722;28;20900;-72
2024/03/27 05:45:41;;;;;;;7.70;6.27;;;;;;;;;;5113575;28;20513;-72
2024/03/27 05:48:08;;;;;;;8.57;7.40;;;;;;;;;;5113493;28;20427;-74
2024/03/27 05:50:34;;;;;;;7.50;6.10;;;;;;;;;;5113499;28;20440;-74
2024/03/27 05:53:00;;;;;;;6.97;6.27;;;;;;;;;;5113480;28;20431;-73
2024/03/27 05:55:27;;;;;;;6.80;6.20;;;;;;;;;;5113444;28;20890;-74
2024/03/27 05:57:54;;;;;;;10.17;6.23;;;;;;;;;;5113225;28;20486;-74
2024/03/27 06:00:20;;;;;;;10.50;7.43;;;;;;;;;;5113285;28;20906;-74
2024/03/27 06:02:46;;;;;;;12.10;6.50;;;;;;;;;;5113231;28;20473;-74
2024/03/27 06:05:12;;;;;;;7.63;6.63;;;;;;;;;;5113166;28;20892;-73
2024/03/27 06:07:38;;;;;;;9.60;6.90;;;;;;;;;;5111707;28;20467;-74
2024/03/27 06:10:04;;;;;;;9.37;6.87;;;;;;;;;;5112103;28;20509;-74
2024/03/27 06:12:30;;;;;;;7.70;6.90;;;;;;;;;;5113183;28;20491;-73
2024/03/27 06:14:56;;;;;;;10.13;7.20;;;;;;;;;;5112945;28;20401;-74
2024/03/27 06:17:22;;;;;;;7.57;6.30;;;;;;;;;;5113054;28;20417;-74
2024/03/27 06:19:48;;;;;;;8.60;7.30;;;;;;;;;;5112750;28;20426;-73
2024/03/27 06:22:14;;;;;;;7.00;6.00;;;;;;;;;;5112820;28;20405;-73
2024/03/27 06:24:41;;;;;;;8.87;6.60;;;;;;;;;;5112850;28;20429;-73
2024/03/27 06:27:07;;;;;;;7.20;6.50;;;;;;;;;;5112779;28;20406;-73
2024/03/27 06:29:33;;;;;;;7.17;6.43;;;;;;;;;;5112649;28;20955;-73
2024/03/27 06:31:59;;;;;;;10.03;6.87;;;;;;;;;;5112552;28;20456;-74
2024/03/27 06:34:25;;;;;;;7.00;6.37;;;;;;;;;;5112631;28;20395;-74
2024/03/27 06:36:51;;;;;;;8.60;6.50;;;;;;;;;;5111418;28;20777;-74
2024/03/27 06:39:18;;;;;;;9.20;6.30;;;;;;;;;;5112681;28;20532;-73
2024/03/27 06:41:44;;;;;;;6.60;6.00;;;;;;;;;;5112754;28;20412;-74
2024/03/27 06:44:10;;;;;;;6.37;5.77;;;;;;;;;;5112690;28;20414;-73
2024/03/27 06:46:36;;;;;;;8.50;7.30;;;;;;;;;;5112418;28;20403;-74
2024/03/27 06:49:18;;;;;;;8.17;6.37;;;;;;;;;;5111174;28;20425;-74
2024/03/27 06:51:50;;;;;;;6.70;6.00;;;;;;;;;;5112460;28;20450;-74
2024/03/27 06:54:16;;;;;;;7.73;6.97;;;;;;;;;;5112575;28;20893;-74
2024/03/27 06:56:42;;;;;;;9.83;6.97;;;;;;;;;;5112581;28;20396;-74
2024/03/27 06:59:08;;;;;;;8.00;6.00;;;;;;;;;;5112545;28;20480;-74
2024/03/27 07:01:34;;;;;;;6.53;5.90;;;;;;;;;;5112476;28;20639;-74
2024/03/27 07:04:01;;;;;;;9.33;6.63;;;;;;;;;;5112684;28;20472;-73
2024/03/27 07:06:27;;;;;;;7.43;6.70;;;;;;;;;;5112344;28;20456;-73
2024/03/27 07:08:53;;;;;;;8.10;7.30;;;;;;;;;;5112096;28;20447;-74
2024/03/27 07:11:19;;;;;;;9.47;7.20;;;;;;;;;;5112744;28;20849;-73
2024/03/27 07:13:45;;;;;;;8.77;7.40;;;;;;;;;;5112632;28;20514;-73
2024/03/27 07:16:11;;;;;;;8.43;7.07;;;;;;;;;;5112715;28;20392;-74
2024/03/27 07:18:38;;;;;;;8.17;7.37;;;;;;;;;;5112407;28;20414;-73
2024/03/27 07:21:04;;;;;;;9.50;8.20;;;;;;;;;;5115564;28;20396;-74
2024/03/27 07:23:30;;;;;;;9.73;7.10;;;;;;;;;;5115114;28;20428;-74
2024/03/27 07:25:56;;;;;;;8.50;7.70;;;;;;;;;;5117189;28;20402;-74
2024/03/27 07:28:22;;;;;;;8.23;7.43;;;;;;;;;;5116481;28;20486;-74
2024/03/27 07:30:49;;;;;;;8.30;7.23;;;;;;;;;;5116514;28;20403;-74
2024/03/27 07:33:15;;;;;;;8.80;7.90;;;;;;;;;;5116033;28;20817;-74
2024/03/27 07:35:41;;;;;;;10.80;7.93;;;;;;;;;;5115907;28;20394;-74
2024/03/27 07:38:07;;;;;;;6.77;6.07;;;;;;;;;;5116069;28;20471;-74
2024/03/27 07:40:33;;;;;;;8.90;7.07;;;;;;;;;;5115953;28;20393;-74
2024/03/27 07:42:59;;;;;;;7.53;6.73;;;;;;;;;;5115779;28;20896;-74
2024/03/27 07:45:25;;;;;;;8.83;6.60;;;;;;;;;;5115749;28;20409;-74
2024/03/27 07:47:52;;;;;;;8.50;7.60;;;;;;;;;;5115581;28;20409;-75
2024/03/27 07:50:18;;;;;;;12.60;6.77;;;;;;;;;;5115639;28;20940;-74
2024/03/27 07:52:44;;;;;;;8.97;7.37;;;;;;;;;;5114217;28;20470;-74
2024/03/27 07:55:10;;;;;;;8.20;7.40;;;;;;;;;;5115512;28;20398;-73
2024/03/27 07:57:36;;;;;;;7.70;7.00;;;;;;;;;;5115514;28;20814;-73
2024/03/27 08:00:04;;;;;;;8.03;6.77;;;;;;;;;;5115340;28;20424;-74
2024/03/27 08:02:30;;;;;;;8.00;7.30;;;;;;;;;;5115255;28;20403;-72
2024/03/27 08:04:58;;;;;;;12.50;6.83;;;;;;;;;;5115216;28;20402;-73
2024/03/27 08:07:24;;;;;;;7.10;6.40;;;;;;;;;;5115533;28;20440;-73
2024/03/27 08:09:50;;;;;;;6.70;6.10;;;;;;;;;;5115144;28;20473;-73
2024/03/27 08:12:17;;;;;;;11.00;7.23;;;;;;;;;;5115159;28;20448;-74
2024/03/27 08:14:43;;;;;;;10.00;6.80;;;;;;;;;;5115215;28;20400;-74
2024/03/27 08:17:10;;;;;;;8.70;6.70;;;;;;;;;;5115208;28;20748;-74
2024/03/27 08:19:40;;;;;;;7.07;6.23;;;;;;;;;;5115307;28;20818;-73
2024/03/27 08:22:09;;;;;;;6.67;5.60;;;;;;;;;;5115012;28;20414;-73
2024/03/27 08:24:35;;;;;;;10.43;6.33;;;;;;;;;;5115005;28;20445;-73
2024/03/27 08:27:02;;;;;;;6.87;6.20;;;;;;;;;;5114991;28;20406;-73
2024/03/27 08:29:28;;;;;;;8.80;6.20;;;;;;;;;;5114808;28;20506;-73
2024/03/27 08:31:54;;;;;;;8.17;5.33;;;;;;;;;;5113992;28;20467;-73
2024/03/27 08:34:21;;;;;;;8.40;6.20;;;;;;;;;;5114851;28;20433;-73
2024/03/27 08:36:47;;;;;;;9.40;6.20;;;;;;;;;;5114929;28;20482;-73
2024/03/27 08:39:14;;;;;;;7.87;5.73;;;;;;;;;;5114617;28;20424;-74
2024/03/27 08:41:40;;;;;;;7.40;6.30;;;;;;;;;;5114976;28;20398;-74
2024/03/27 08:44:06;;;;;;;7.80;5.90;;;;;;;;;;5113232;28;20975;-74
2024/03/27 08:46:32;;;;;;;6.63;5.90;;;;;;;;;;5114620;28;20404;-73
2024/03/27 08:48:58;;;;;;;7.43;6.60;;;;;;;;;;5114504;28;20878;-74
2024/03/27 08:51:24;;;;;;;9.07;6.30;;;;;;;;;;5114616;28;20456;-74
2024/03/27 08:53:50;;;;;;;6.73;6.03;;;;;;;;;;5114513;28;20394;-74
2024/03/27 08:56:16;;;;;;;9.50;6.80;;;;;;;;;;5114458;28;20403;-74
2024/03/27 08:58:42;;;;;;;6.93;5.63;;;;;;;;;;5114431;28;20421;-74
2024/03/27 09:01:15;;;;;;;8.00;6.43;;;;;;;;;;5114239;28;20449;-74
2024/03/27 09:03:41;;;;;;;6.87;6.07;;;;;;;;;;5114563;28;20415;-75
2024/03/27 09:06:08;;;;;;;7.10;6.20;;;;;;;;;;5114661;28;20406;-74
2024/03/27 09:08:34;;;;;;;8.00;6.27;;;;;;;;;;5114249;28;20853;-74
2024/03/27 09:11:00;;;;;;;7.27;6.57;;;;;;;;;;5114348;28;20862;-74
2024/03/27 09:13:27;;;;;;;9.23;6.53;;;;;;;;;;5115537;28;20399;-74
2024/03/27 09:15:58;;;;;;;8.30;6.57;;;;;;;;;;5115008;28;20814;-73
2024/03/27 09:18:24;;;;;;;7.70;7.00;;;;;;;;;;5114059;28;20443;-73
2024/03/27 09:20:54;;;;;;;6.80;6.10;;;;;;;;;;5113799;28;20479;-74
2024/03/27 09:23:20;;;;;;;13.73;7.13;;;;;;;;;;5114070;28;20412;-74
2024/03/27 09:25:53;;;;;;;8.63;6.57;;;;;;;;;;5112505;28;20416;-73
2024/03/27 09:28:19;;;;;;;8.00;7.20;;;;;;;;;;5113810;28;20441;-73
2024/03/27 09:30:46;;;;;;;9.00;7.03;;;;;;;;;;5113569;28;20410;-73
2024/03/27 09:33:12;;;;;;;7.13;6.40;;;;;;;;;;5113663;28;20928;-74
2024/03/27 09:35:38;;;;;;;8.27;7.13;;;;;;;;;;5113692;28;20401;-74
2024/03/27 09:38:04;;;;;;;12.93;7.40;;;;;;;;;;5113491;28;20413;-74
2024/03/27 09:40:30;;;;;;;9.63;7.30;;;;;;;;;;5113625;28;20395;-74
2024/03/27 09:42:56;;;;;;;8.23;7.43;;;;;;;;;;5113499;28;20889;-73
2024/03/27 09:45:23;;;;;;;7.83;7.03;;;;;;;;;;5113503;28;20476;-74
2024/03/27 09:47:50;;;;;;;7.83;7.13;;;;;;;;;;5113406;28;20406;-72
2024/03/27 09:50:16;;;;;;;8.07;7.00;;;;;;;;;;5113334;28;20429;-73
2024/03/27 09:52:42;;;;;;;8.33;7.30;;;;;;;;;;5113252;28;20453;-73
2024/03/27 09:55:08;;;;;;;8.80;7.30;;;;;;;;;;5113338;28;20391;-75
2024/03/27 09:57:34;;;;;;;8.03;7.10;;;;;;;;;;5113266;28;20913;-74
2024/03/27 10:00:00;;;;;;;6.93;6.23;;;;;;;;;;5113093;28;20418;-73
2024/03/27 10:02:28;;;;;;;6.63;6.03;;;;;;;;;;5113162;28;20398;-74
2024/03/27 10:04:54;;;;;;;7.80;6.50;;;;;;;;;;5113183;28;20776;-74
2024/03/27 10:07:23;;;;;;;7.27;5.97;;;;;;;;;;5111753;28;20440;-74
2024/03/27 10:09:49;;;;;;;10.00;6.10;;;;;;;;;;5113032;28;20450;-74
2024/03/27 10:12:16;;;;;;;9.37;6.47;;;;;;;;;;5112231;28;21050;-73
2024/03/27 10:14:42;;;;;;;8.50;7.37;;;;;;;;;;5113167;28;20437;-73
2024/03/27 10:17:08;;;;;;;7.20;6.50;;;;;;;;;;5112923;28;20841;-73
2024/03/27 10:19:34;;;;;;;8.80;7.00;;;;;;;;;;5111784;28;20425;-74
2024/03/27 10:22:00;;;;;;;8.87;6.07;;;;;;;;;;5113034;28;20799;-73
2024/03/27 10:24:26;;;;;;;6.37;5.73;;;;;;;;;;5113038;28;20434;-74
2024/03/27 10:26:52;;;;;;;7.60;6.40;;;;;;;;;;5113395;28;20421;-74
2024/03/27 10:29:19;;;;;;;7.80;6.73;;;;;;;;;;5112776;28;20920;-74
2024/03/27 10:31:45;;;;;;;7.67;5.93;;;;;;;;;;5113037;28;20446;-74
2024/03/27 10:34:11;;;;;;;7.00;6.30;;;;;;;;;;5112912;28;20477;-72
2024/03/27 10:36:40;;;;;;;8.60;5.53;;;;;;;;;;5113068;28;21121;-74
2024/03/27 10:39:09;;;;;;;6.90;6.20;;;;;;;;;;5113039;28;20940;-74
2024/03/27 10:41:35;;;;;;;8.70;5.90;;;;;;;;;;5113067;28;20416;-75
2024/03/27 10:44:03;;;;;;;8.50;6.20;;;;;;;;;;5111446;28;20415;-74
2024/03/27 10:46:32;;;;;;;6.53;5.90;;;;;;;;;;5113040;28;20412;-73
2024/03/27 10:48:59;;;;;;;7.50;6.80;;;;;;;;;;5112732;28;20437;-75
2024/03/27 10:51:25;;;;;;;7.27;5.80;;;;;;;;;;5112731;28;21031;-74
2024/03/27 10:53:52;;;;;;;9.03;7.27;;;;;;;;;;5113212;28;20425;-74
2024/03/27 10:56:18;;;;;;;7.73;7.03;;;;;;;;;;5116457;28;20398;-74
2024/03/27 10:58:44;;;;;;;8.20;7.00;;;;;;;;;;5116927;28;20533;-74
2024/03/27 11:01:12;;;;;;;7.43;6.70;;;;;;;;;;5118257;28;20407;-74
2024/03/27 11:03:39;;;;;;;10.23;7.03;;;;;;;;;;5117429;28;20491;-74
2024/03/27 11:06:08;;;;;;;8.70;6.50;;;;;;;;;;5117391;28;20408;-74
2024/03/27 11:08:34;;;;;;;7.40;6.50;;;;;;;;;;5116488;28;20492;-74
2024/03/27 11:11:04;;;;;;;9.53;6.00;;;;;;;;;;5116475;28;20402;-73
2024/03/27 11:13:31;;;;;;;8.30;7.47;;;;;;;;;;5116576;28;20433;-74
2024/03/27 11:15:57;;;;;;;7.10;6.40;;;;;;;;;;5116362;28;20397;-75
2024/03/27 11:18:28;;;;;;;8.73;7.07;;;;;;;;;;5116292;28;20828;-73
2024/03/27 11:20:56;;;;;;;9.20;7.10;;;;;;;;;;5116462;28;20411;-74
2024/03/27 11:23:35;;;;;;;7.77;6.97;;;;;;;;;;5116729;28;20395;-74
2024/03/27 11:26:04;;;;;;;10.93;8.00;;;;;;;;;;5116393;28;20397;-74
2024/03/27 11:28:32;;;;;;;8.47;7.67;;;;;;;;;;5116296;28;20425;-74
2024/03/27 11:30:58;;;;;;;8.30;7.13;;;;;;;;;;5115162;28;20920;-75
2024/03/27 11:33:24;;;;;;;7.10;6.50;;;;;;;;;;5116246;28;20760;-74
2024/03/27 11:35:51;;;;;;;8.53;6.40;;;;;;;;;;5116248;28;20792;-74
2024/03/27 11:38:20;;;;;;;9.13;7.37;;;;;;;;;;5114870;28;20411;-75
2024/03/27 11:40:49;;;;;;;7.57;6.90;;;;;;;;;;5116102;28;20452;-73
2024/03/27 11:43:15;;;;;;;7.23;6.47;;;;;;;;;;5115976;28;20941;-74
2024/03/27 11:45:43;;;;;;;6.97;6.33;;;;;;;;;;5115892;28;20491;-74
2024/03/27 11:48:09;;;;;;;6.60;6.00;;;;;;;;;;5115967;28;20788;-73
2024/03/27 11:50:35;;;;;;;6.60;6.00;;;;;;;;;;5115833;28;20398;-74
2024/03/27 11:53:01;;;;;;;6.50;5.90;;;;;;;;;;5115731;28;20489;-74
2024/03/27 11:55:27;;;;;;;7.40;6.70;;;;;;;;;;5115722;28;20408;-74
2024/03/27 11:57:53;;;;;;;5.57;5.07;;;;;;;;;;5115661;28;20802;-73
2024/03/27 12:00:19;;;;;;;6.27;5.20;;;;;;;;;;5115888;28;20822;-74
2024/03/27 12:02:45;;;;;;;5.23;4.73;;;;;;;;;;5116102;28;20486;-72
2024/03/27 12:05:11;;;;;;;6.63;4.60;;;;;;;;;;5117015;28;20472;-73
2024/03/27 12:07:37;;;;;;;5.83;4.60;;;;;;;;;;5114274;28;20809;-73
2024/03/27 12:10:04;;;;;;;5.37;4.10;;;;;;;;;;5115424;28;20522;-74
2024/03/27 12:12:30;;;;;;;3.30;3.00;;;;;;;;;;5114370;28;20456;-74
2024/03/27 12:14:57;;;;;;;5.70;2.80;;;;;;;;;;5115570;28;20404;-75
2024/03/27 12:17:24;;;;;;;6.67;3.03;;;;;;;;;;5116355;28;20403;-74
2024/03/27 12:19:51;;;;;;;3.90;2.17;;;;;;;;;;5114693;28;20432;-75
2024/03/27 12:22:18;;;;;;;2.57;2.23;;;;;;;;;;5115491;28;20461;-74
2024/03/27 12:24:44;;;;;;;3.10;2.27;;;;;;;;;;5115263;28;20406;-74
2024/03/27 12:27:10;;;;;;;2.83;1.93;;;;;;;;;;5115409;28;20404;-73
2024/03/27 12:29:36;;;;;;;3.60;2.23;;;;;;;;;;5115019;28;20922;-74
2024/03/27 12:32:04;;;;;;;4.43;2.00;;;;;;;;;;5113853;28;20460;-73
2024/03/27 12:34:30;;;;;;;2.37;1.97;;;;;;;;;;5115216;28;20489;-74
2024/03/27 12:36:57;;;;;;;2.80;1.50;;;;;;;;;;5115009;28;20406;-74
2024/03/27 12:39:23;;;;;;;2.27;1.50;;;;;;;;;;5114765;28;20422;-74
2024/03/27 12:41:49;;;;;;;2.50;1.30;;;;;;;;;;5114751;28;20907;-73
2024/03/27 12:44:15;;;;;;;3.23;1.37;;;;;;;;;;5113375;28;20422;-73
2024/03/27 12:46:41;;;;;;;2.30;1.50;;;;;;;;;;5114851;28;20410;-74
2024/03/27 12:49:07;;;;;;;4.43;1.60;;;;;;;;;;5114483;28;20434;-73
2024/03/27 12:51:33;;;;;;;2.77;1.80;;;;;;;;;;5114959;28;20509;-73
2024/03/27 12:53:59;;;;;;;2.63;1.13;;;;;;;;;;5114631;28;20409;-74
2024/03/27 12:56:25;;;;;;;2.13;1.60;;;;;;;;;;5114597;28;20394;-74
2024/03/27 12:58:51;;;;;;;3.40;1.80;;;;;;;;;;5114416;28;20472;-74
2024/03/27 13:01:18;;;;;;;1.57;1.10;;;;;;;;;;5114346;28;20881;-74
2024/03/27 13:03:44;;;;;;;1.90;1.23;;;;;;;;;;5114286;28;20401;-75
2024/03/27 13:06:10;;;;;;;1.90;1.50;;;;;;;;;;5113033;28;20418;-74
2024/03/27 13:08:36;;;;;;;1.03;0.93;;;;;;;;;;5114032;28;20997;-75
2024/03/27 13:11:03;;;;;;;2.00;1.20;;;;;;;;;;5114196;28;20403;-75
2024/03/27 13:13:31;;;;;;;3.93;1.40;;;;;;;;;;5114214;28;20458;-74
2024/03/27 13:15:57;;;;;;;1.87;1.50;;;;;;;;;;5113976;28;20415;-75
2024/03/27 13:18:23;;;;;;;1.60;1.20;;;;;;;;;;5112439;28;20423;-75
2024/03/27 13:20:49;;;;;;;2.37;1.30;;;;;;;;;;5114065;28;20482;-75
2024/03/27 13:23:15;;;;;;;3.23;1.30;;;;;;;;;;5114249;28;20784;-75
2024/03/27 13:25:41;;;;;;;2.63;2.00;;;;;;;;;;5114052;28;20750;-75
2024/03/27 13:28:07;;;;;;;4.83;1.37;;;;;;;;;;5112555;28;20438;-75
2024/03/27 13:30:33;;;;;;;1.33;1.13;;;;;;;;;;5113933;28;20419;-74
2024/03/27 13:33:01;;;;;;;1.80;1.20;;;;;;;;;;5113768;28;20772;-75
2024/03/27 13:35:27;;;;;;;2.90;1.80;;;;;;;;;;5113862;28;20398;-74
2024/03/27 13:37:53;;;;;;;3.33;1.17;;;;;;;;;;5113681;28;20408;-74
2024/03/27 13:40:20;;;;;;;2.23;1.60;;;;;;;;;;5113681;28;20391;-73
2024/03/27 13:42:46;;;;;;;3.43;1.17;;;;;;;;;;5113677;28;20405;-73
2024/03/27 13:45:12;;;;;;;1.50;1.30;;;;;;;;;;5112279;28;20399;-75
2024/03/27 13:47:38;;;;;;;1.50;1.00;;;;;;;;;;5113548;28;20402;-73
2024/03/27 13:50:05;;;;;;;3.23;1.23;;;;;;;;;;5113345;28;20429;-73
2024/03/27 13:52:31;;;;;;;1.77;1.30;;;;;;;;;;5113362;28;20507;-74
2024/03/27 13:54:57;;;;;;;1.80;1.40;;;;;;;;;;5113430;28;20421;-73
2024/03/27 13:57:23;;;;;;;2.17;1.10;;;;;;;;;;5113368;28;20478;-74
2024/03/27 13:59:49;;;;;;;1.40;1.30;;;;;;;;;;5113256;28;20444;-73
2024/03/27 14:02:15;;;;;;;1.17;1.00;;;;;;;;;;5113137;28;20951;-73
2024/03/27 14:04:43;;;;;;;1.33;1.10;;;;;;;;;;5113173;28;20397;-74
2024/03/27 14:07:09;;;;;;;1.20;0.87;;;;;;;;;;5112969;28;20406;-74
2024/03/27 14:09:35;;;;;;;1.37;1.10;;;;;;;;;;5112929;28;20466;-74
2024/03/27 14:12:02;;;;;;;1.83;0.93;;;;;;;;;;5113026;28;20829;-74
2024/03/27 14:14:28;;;;;;;2.30;1.07;;;;;;;;;;5113136;28;20389;-73
2024/03/27 14:16:54;;;;;;;1.50;0.97;;;;;;;;;;5113025;28;20832;-74
2024/03/27 14:19:20;;;;;;;1.40;0.87;;;;;;;;;;5111808;28;20935;-74
2024/03/27 14:21:47;;;;;;;2.33;0.87;;;;;;;;;;5113484;28;20420;-73
2024/03/27 14:24:14;;;;;;;1.47;0.80;;;;;;;;;;5113612;28;20457;-74
2024/03/27 14:26:40;;;;;;;1.60;0.80;;;;;;;;;;5113391;28;20447;-74
2024/03/27 14:29:06;;;;;;;1.37;0.80;;;;;;;;;;5114244;28;20434;-74
2024/03/27 14:31:32;;;;;;;1.93;0.90;;;;;;;;;;5114860;28;20458;-74
2024/03/27 14:33:58;;;;;;;1.70;0.97;;;;;;;;;;5116106;28;20456;-74
2024/03/27 14:36:24;;;;;;;1.47;0.80;;;;;;;;;;5115740;28;20394;-74
2024/03/27 14:38:50;;;;;;;0.93;0.80;;;;;;;;;;5115070;28;20782;-74